createdAt,value
2023-03-28T00:01:48.731Z,11.10
2023-03-28T00:04:17.410Z,11.00
2023-03-28T00:06:45.936Z,11.00
2023-03-28T00:09:15.350Z,10.90
2023-03-28T00:11:43.425Z,10.90
2023-03-28T00:14:14.245Z,10.80
2023-03-28T00:16:45.590Z,10.70
2023-03-28T00:19:16.555Z,10.60
2023-03-28T00:21:47.290Z,10.60
2023-03-28T00:24:18.081Z,10.50
2023-03-28T00:26:49.522Z,10.50
2023-03-28T00:29:21.132Z,10.40
2023-03-28T00:31:51.228Z,10.40
2023-03-28T00:34:19.703Z,10.40
2023-03-28T00:36:47.749Z,10.30
2023-03-28T00:39:17.205Z,10.20
2023-03-28T00:41:46.040Z,10.20
2023-03-28T00:44:49.162Z,10.10
2023-03-28T00:47:38.592Z,10.10
2023-03-28T00:50:11.873Z,10.00
2023-03-28T00:52:43.639Z,10.00
2023-03-28T00:55:18.147Z,9.90
2023-03-28T00:57:48.722Z,9.90
2023-03-28T01:00:18.805Z,9.90
2023-03-28T01:02:51.369Z,9.90
2023-03-28T01:05:23.213Z,9.90
2023-03-28T01:07:57.989Z,9.80
2023-03-28T01:10:29.064Z,9.80
2023-03-28T01:12:59.013Z,9.80
2023-03-28T01:15:30.261Z,9.70
2023-03-28T01:18:03.008Z,9.70
2023-03-28T01:21:00.397Z,9.60
2023-03-28T01:24:11.439Z,9.60
2023-03-28T01:26:50.617Z,9.60
2023-03-28T01:29:41.966Z,9.50
2023-03-28T01:33:01.856Z,9.50
2023-03-28T01:36:10.718Z,9.40
2023-03-28T01:38:44.261Z,9.30
2023-03-28T01:41:20.715Z,9.30
2023-03-28T01:43:58.794Z,9.20
2023-03-28T01:46:31.283Z,9.10
2023-03-28T01:49:08.085Z,9.00
2023-03-28T01:51:46.458Z,8.90
2023-03-28T01:54:26.514Z,8.90
2023-03-28T01:57:03.477Z,8.80
2023-03-28T01:59:38.279Z,8.80
2023-03-28T02:02:13.285Z,8.80
2023-03-28T02:04:45.507Z,8.80
2023-03-28T02:07:14.678Z,8.70
2023-03-28T02:09:46.219Z,8.70
2023-03-28T02:12:22.331Z,8.70
2023-03-28T02:14:52.736Z,8.70
2023-03-28T02:17:23.880Z,8.60
2023-03-28T02:19:58.611Z,8.60
2023-03-28T02:22:33.566Z,8.50
2023-03-28T02:25:03.308Z,8.50
2023-03-28T02:27:34.051Z,8.50
2023-03-28T02:30:02.343Z,8.40
2023-03-28T02:32:34.114Z,8.40
2023-03-28T02:35:04.283Z,8.30
2023-03-28T02:37:42.659Z,8.30
2023-03-28T02:40:27.118Z,8.30
2023-03-28T02:43:23.641Z,8.20
2023-03-28T02:46:20.963Z,8.20
2023-03-28T02:49:06.023Z,8.20
2023-03-28T02:51:41.708Z,8.10
2023-03-28T02:54:29.453Z,8.10
2023-03-28T02:57:08.292Z,8.10
2023-03-28T02:59:42.195Z,8.00
2023-03-28T03:02:10.370Z,8.00
2023-03-28T03:04:38.556Z,8.00
2023-03-28T03:07:08.949Z,7.90
2023-03-28T03:09:37.029Z,7.90
2023-03-28T03:12:06.927Z,7.90
2023-03-28T03:14:37.020Z,7.90
2023-03-28T03:17:05.808Z,7.90
2023-03-28T03:19:34.105Z,7.90
2023-03-28T03:22:02.423Z,7.90
2023-03-28T03:24:30.624Z,7.90
2023-03-28T03:26:58.635Z,7.90
2023-03-28T03:29:28.050Z,7.90
2023-03-28T03:32:07.410Z,7.90
2023-03-28T03:34:36.763Z,7.90
2023-03-28T03:37:05.226Z,7.90
2023-03-28T03:39:33.246Z,7.90
2023-03-28T03:42:01.288Z,7.90
2023-03-28T03:44:31.082Z,7.90
2023-03-28T03:46:59.145Z,7.80
2023-03-28T03:49:27.231Z,7.80
2023-03-28T03:51:55.245Z,7.80
2023-03-28T03:54:23.350Z,7.80
2023-03-28T03:56:51.379Z,7.70
2023-03-28T03:59:19.628Z,7.70
2023-03-28T04:01:49.051Z,7.70
2023-03-28T04:04:17.458Z,7.70
2023-03-28T04:06:45.582Z,7.70
2023-03-28T04:09:13.601Z,7.60
2023-03-28T04:11:41.633Z,7.60
2023-03-28T04:14:09.692Z,7.50
2023-03-28T04:16:40.297Z,7.50
2023-03-28T04:19:13.887Z,7.40
2023-03-28T04:21:42.882Z,7.50
2023-03-28T04:24:15.661Z,7.40
2023-03-28T04:26:45.906Z,7.40
2023-03-28T04:29:14.100Z,7.40
2023-03-28T04:31:49.708Z,7.30
2023-03-28T04:34:20.015Z,7.30
2023-03-28T04:36:48.161Z,7.30
2023-03-28T04:39:16.199Z,7.30
2023-03-28T04:41:46.080Z,7.20
2023-03-28T04:44:14.188Z,7.20
2023-03-28T04:46:42.210Z,7.20
2023-03-28T04:49:10.798Z,7.20
2023-03-28T04:51:40.190Z,7.20
2023-03-28T04:54:08.211Z,7.20
2023-03-28T04:56:36.468Z,7.10
2023-03-28T04:59:04.545Z,7.10
2023-03-28T05:01:33.083Z,7.10
2023-03-28T05:04:01.271Z,7.10
2023-03-28T05:06:29.299Z,7.10
2023-03-28T05:08:58.794Z,7.10
2023-03-28T05:11:26.863Z,7.10
2023-03-28T05:13:54.886Z,7.00
2023-03-28T05:16:23.034Z,7.00
2023-03-28T05:18:51.449Z,7.00
2023-03-28T05:21:19.483Z,7.10
2023-03-28T05:23:52.284Z,7.10
2023-03-28T05:26:22.095Z,7.10
2023-03-28T05:28:50.263Z,7.10
2023-03-28T05:31:18.350Z,7.10
2023-03-28T05:33:46.581Z,7.20
2023-03-28T05:36:14.844Z,7.20
2023-03-28T05:38:42.956Z,7.30
2023-03-28T05:41:11.689Z,7.30
2023-03-28T05:43:41.080Z,7.40
2023-03-28T05:46:09.310Z,7.40
2023-03-28T05:48:38.031Z,7.50
2023-03-28T05:51:06.391Z,7.50
2023-03-28T05:53:34.429Z,7.60
2023-03-28T05:56:02.485Z,7.70
2023-03-28T05:58:31.712Z,7.80
2023-03-28T06:01:02.971Z,7.90
2023-03-28T06:03:32.020Z,8.00
2023-03-28T06:06:00.195Z,8.10
2023-03-28T06:08:28.342Z,8.20
2023-03-28T06:11:02.258Z,8.30
2023-03-28T06:13:30.514Z,8.40
2023-03-28T06:15:59.991Z,8.50
2023-03-28T06:18:28.057Z,8.60
2023-03-28T06:20:56.132Z,8.70
2023-03-28T06:23:24.498Z,8.80
2023-03-28T06:25:52.528Z,8.90
2023-03-28T06:28:21.151Z,8.90
2023-03-28T06:30:50.373Z,9.00
2023-03-28T06:33:19.768Z,9.10
2023-03-28T06:35:47.871Z,9.20
2023-03-28T06:38:15.926Z,9.30
2023-03-28T06:40:44.364Z,9.40
2023-03-28T06:43:12.399Z,9.50
2023-03-28T06:45:41.905Z,9.60
2023-03-28T06:48:10.070Z,9.60
2023-03-28T06:50:39.545Z,9.70
2023-03-28T06:53:07.585Z,9.80
2023-03-28T06:55:36.716Z,9.90
2023-03-28T06:58:05.400Z,10.00
2023-03-28T07:00:33.469Z,10.00
2023-03-28T07:03:01.705Z,10.10
2023-03-28T07:05:30.523Z,10.20
2023-03-28T07:08:00.145Z,10.30
2023-03-28T07:10:28.160Z,10.40
2023-03-28T07:12:56.283Z,10.60
2023-03-28T07:15:24.381Z,10.70
2023-03-28T07:17:53.295Z,10.80
2023-03-28T07:20:21.434Z,10.90
2023-03-28T07:22:49.440Z,11.00
2023-03-28T07:25:19.226Z,11.10
2023-03-28T07:27:47.357Z,11.20
2023-03-28T07:30:16.384Z,11.30
2023-03-28T07:32:54.401Z,11.40
2023-03-28T07:35:24.968Z,11.50
2023-03-28T07:37:53.043Z,11.70
2023-03-28T07:40:22.785Z,11.80
2023-03-28T07:42:51.053Z,11.90
2023-03-28T07:45:19.110Z,12.00
2023-03-28T07:47:47.600Z,12.10
2023-03-28T07:50:15.833Z,12.20
2023-03-28T07:52:45.798Z,12.40
2023-03-28T07:55:14.065Z,12.50
2023-03-28T07:57:45.664Z,12.60
2023-03-28T08:00:15.643Z,12.80
2023-03-28T08:02:45.223Z,12.90
2023-03-28T08:05:13.758Z,13.10
2023-03-28T08:07:46.010Z,13.20
2023-03-28T08:10:15.044Z,13.30
2023-03-28T08:12:44.623Z,13.40
2023-03-28T08:15:13.118Z,13.50
2023-03-28T08:17:41.204Z,13.70
2023-03-28T08:20:11.536Z,13.80
2023-03-28T08:22:39.731Z,13.90
2023-03-28T08:25:09.460Z,14.00
2023-03-28T08:27:37.509Z,14.10
2023-03-28T08:30:08.732Z,14.20
2023-03-28T08:32:36.939Z,14.40
2023-03-28T08:35:06.438Z,14.50
2023-03-28T08:37:34.686Z,14.50
2023-03-28T08:40:03.503Z,14.60
2023-03-28T08:42:42.113Z,14.80
2023-03-28T08:45:38.726Z,14.90
2023-03-28T08:48:16.913Z,15.00
2023-03-28T08:50:47.339Z,15.10
2023-03-28T08:53:24.233Z,15.20
2023-03-28T08:55:55.005Z,15.30
2023-03-28T08:58:25.026Z,15.30
2023-03-28T09:00:54.561Z,15.40
2023-03-28T09:03:24.568Z,15.50
2023-03-28T09:05:57.870Z,15.60
2023-03-28T09:08:46.276Z,15.70
2023-03-28T09:11:33.792Z,15.70
2023-03-28T09:14:17.296Z,15.90
2023-03-28T09:16:59.873Z,16.00
2023-03-28T09:19:47.929Z,16.10
2023-03-28T09:22:27.567Z,16.20
2023-03-28T09:25:04.788Z,16.30
2023-03-28T09:27:35.798Z,16.40
2023-03-28T09:30:17.769Z,16.50
2023-03-28T09:32:47.403Z,16.60
2023-03-28T09:35:20.374Z,16.60
2023-03-28T09:37:51.721Z,16.70
2023-03-28T09:40:23.988Z,16.80
2023-03-28T09:43:07.658Z,16.90
2023-03-28T09:45:48.731Z,17.10
2023-03-28T09:48:22.068Z,17.20
2023-03-28T09:50:50.670Z,17.30
2023-03-28T09:53:23.899Z,17.50
2023-03-28T09:56:03.279Z,17.70
2023-03-28T09:58:49.123Z,18.00
2023-03-28T10:01:42.918Z,18.30
2023-03-28T10:04:15.462Z,18.70
2023-03-28T10:06:44.762Z,18.90
2023-03-28T10:09:19.663Z,19.20
2023-03-28T10:14:34.442Z,19.70
2023-03-28T10:17:05.800Z,20.00
2023-03-28T10:19:38.449Z,20.10
2023-03-28T10:22:09.169Z,20.40
2023-03-28T10:29:45.081Z,21.30
2023-03-28T10:32:14.548Z,21.60
2023-03-28T10:34:44.807Z,21.90
2023-03-28T10:40:07.810Z,22.40
2023-03-28T10:42:44.074Z,22.50
2023-03-28T10:45:21.754Z,22.50
2023-03-28T10:47:51.897Z,22.90
2023-03-28T10:50:29.360Z,23.20
2023-03-28T10:53:10.946Z,23.60
2023-03-28T10:55:42.739Z,23.80
2023-03-28T10:58:20.477Z,23.90
2023-03-28T11:00:54.066Z,24.30
2023-03-28T11:06:11.214Z,24.90
2023-03-28T11:08:48.567Z,25.20
2023-03-28T11:11:36.800Z,25.60
2023-03-28T11:14:17.420Z,25.80
2023-03-28T11:19:30.035Z,26.70
2023-03-28T11:22:08.450Z,26.80
2023-03-28T11:24:42.954Z,26.90
2023-03-28T11:27:19.254Z,27.00
2023-03-28T11:29:52.716Z,27.30
2023-03-28T11:32:25.527Z,27.70
2023-03-28T11:37:41.042Z,28.40
2023-03-28T11:40:21.811Z,28.60
2023-03-28T11:48:20.447Z,29.40
2023-03-28T11:50:55.969Z,29.40
2023-03-28T11:53:29.741Z,29.60
2023-03-28T11:56:03.799Z,29.80
2023-03-28T12:01:09.604Z,30.20
2023-03-28T12:03:57.045Z,30.30
2023-03-28T12:06:32.650Z,30.50
2023-03-28T12:09:09.732Z,30.60
2023-03-28T12:11:42.678Z,30.70
2023-03-28T12:14:30.889Z,30.70
2023-03-28T12:16:59.822Z,30.60
2023-03-28T12:19:35.399Z,30.60
2023-03-28T12:22:09.337Z,30.70
2023-03-28T12:24:46.712Z,30.90
2023-03-28T12:27:25.381Z,31.10
2023-03-28T12:29:59.198Z,31.20
2023-03-28T12:32:38.274Z,31.30
2023-03-28T12:35:15.585Z,31.30
2023-03-28T12:37:54.300Z,31.10
2023-03-28T12:40:31.045Z,30.60
2023-03-28T12:43:00.449Z,29.90
2023-03-28T12:45:31.529Z,29.10
2023-03-28T12:48:06.528Z,28.30
2023-03-28T12:50:49.433Z,27.50
2023-03-28T12:53:18.537Z,26.70
2023-03-28T12:55:49.946Z,26.20
2023-03-28T12:58:27.173Z,25.70
2023-03-28T13:01:20.110Z,25.10
2023-03-28T13:03:59.452Z,24.60
2023-03-28T13:06:38.114Z,24.10
2023-03-28T13:09:52.624Z,23.60
2023-03-28T13:12:35.834Z,23.00
2023-03-28T13:15:25.370Z,22.60
2023-03-28T13:18:32.424Z,22.30
2023-03-28T13:21:04.110Z,22.00
2023-03-28T13:23:37.712Z,21.80
2023-03-28T13:26:07.714Z,21.80
2023-03-28T13:28:44.263Z,21.70
2023-03-28T13:31:20.037Z,21.70
2023-03-28T13:33:49.745Z,21.60
2023-03-28T13:36:23.690Z,21.50
2023-03-28T13:39:00.854Z,21.30
2023-03-28T13:41:55.109Z,21.10
2023-03-28T13:44:31.032Z,20.90
2023-03-28T13:46:59.628Z,20.60
2023-03-28T13:49:37.858Z,20.40
2023-03-28T13:52:10.001Z,20.40
2023-03-28T13:54:38.228Z,20.30
2023-03-28T13:57:08.442Z,20.20
2023-03-28T13:59:40.661Z,20.20
2023-03-28T14:02:18.498Z,20.30
2023-03-28T14:04:53.175Z,20.50
2023-03-28T14:07:28.449Z,20.60
2023-03-28T14:09:57.587Z,20.70
2023-03-28T14:12:28.665Z,20.70
2023-03-28T14:14:59.653Z,20.50
2023-03-28T14:17:32.439Z,20.40
2023-03-28T14:20:02.611Z,20.30
2023-03-28T14:22:32.494Z,20.20
2023-03-28T14:25:03.316Z,20.10
2023-03-28T14:27:36.882Z,20.00
2023-03-28T14:30:19.369Z,20.00
2023-03-28T14:32:58.763Z,20.00
2023-03-28T14:35:29.388Z,20.00
2023-03-28T14:37:59.041Z,20.00
2023-03-28T14:40:33.434Z,19.90
2023-03-28T14:43:04.423Z,19.90
2023-03-28T14:45:37.663Z,20.00
2023-03-28T14:48:08.488Z,20.00
2023-03-28T14:50:40.889Z,20.00
2023-03-28T14:53:14.582Z,20.00
2023-03-28T14:55:43.304Z,19.90
2023-03-28T14:58:13.905Z,19.80
2023-03-28T15:00:46.868Z,19.80
2023-03-28T15:03:17.606Z,19.80
2023-03-28T15:05:48.465Z,19.90
2023-03-28T15:08:28.111Z,19.90
2023-03-28T15:10:56.960Z,20.10
2023-03-28T15:13:31.440Z,20.30
2023-03-28T15:16:01.144Z,20.60
2023-03-28T15:18:33.910Z,20.80
2023-03-28T15:21:04.616Z,20.90
2023-03-28T15:23:35.759Z,21.10
2023-03-28T15:26:08.629Z,21.20
2023-03-28T15:28:37.333Z,21.20
2023-03-28T15:31:08.365Z,21.10
2023-03-28T15:33:36.486Z,21.00
2023-03-28T15:36:09.129Z,20.70
2023-03-28T15:38:40.265Z,20.40
2023-03-28T15:41:18.976Z,20.30
2023-03-28T15:44:00.382Z,20.10
2023-03-28T15:46:33.830Z,19.90
2023-03-28T15:49:04.733Z,19.80
2023-03-28T15:51:50.818Z,19.70
2023-03-28T15:54:30.291Z,19.70
2023-03-28T15:57:02.122Z,19.70
2023-03-28T15:59:36.030Z,19.80
2023-03-28T16:02:32.360Z,19.80
2023-03-28T16:05:04.754Z,19.80
2023-03-28T16:07:37.546Z,19.70
2023-03-28T16:10:06.637Z,19.60
2023-03-28T16:12:34.720Z,19.40
2023-03-28T16:15:04.204Z,19.30
2023-03-28T16:17:34.258Z,19.10
2023-03-28T16:20:03.912Z,18.90
2023-03-28T16:22:31.957Z,18.80
2023-03-28T16:24:59.991Z,18.60
2023-03-28T16:27:28.031Z,18.50
2023-03-28T16:29:56.770Z,18.30
2023-03-28T16:32:25.079Z,18.20
2023-03-28T16:34:54.514Z,18.10
2023-03-28T16:37:22.911Z,18.00
2023-03-28T16:39:51.468Z,18.00
2023-03-28T16:42:20.872Z,17.90
2023-03-28T16:44:49.008Z,17.80
2023-03-28T16:47:17.041Z,17.70
2023-03-28T16:49:45.340Z,17.60
2023-03-28T16:54:44.179Z,17.40
2023-03-28T16:57:12.306Z,17.30
2023-03-28T16:59:40.365Z,17.20
2023-03-28T17:02:09.038Z,17.10
2023-03-28T17:04:37.311Z,17.10
2023-03-28T17:07:06.075Z,17.00
2023-03-28T17:09:36.296Z,16.90
2023-03-28T17:12:04.374Z,16.80
2023-03-28T17:14:32.625Z,16.70
2023-03-28T17:17:00.754Z,16.60
2023-03-28T17:19:29.084Z,16.60
2023-03-28T17:21:57.151Z,16.50
2023-03-28T17:24:25.265Z,16.50
2023-03-28T17:26:54.677Z,16.40
2023-03-28T17:29:22.800Z,16.30
2023-03-28T17:31:51.579Z,16.20
2023-03-28T17:34:19.929Z,16.10
2023-03-28T17:36:48.914Z,16.00
2023-03-28T17:39:16.923Z,15.90
2023-03-28T17:41:44.981Z,15.80
2023-03-28T17:44:14.396Z,15.70
2023-03-28T17:46:42.755Z,15.60
2023-03-28T17:49:10.819Z,15.50
2023-03-28T17:51:39.281Z,15.40
2023-03-28T17:54:11.842Z,15.40
2023-03-28T17:56:40.064Z,15.30
2023-03-28T17:59:08.327Z,15.20
2023-03-28T18:01:38.723Z,15.10
2023-03-28T18:06:36.018Z,14.90
2023-03-28T18:09:04.301Z,14.80
2023-03-28T18:11:32.345Z,14.70
2023-03-28T18:14:00.636Z,14.60
2023-03-28T18:16:29.194Z,14.50
2023-03-28T18:18:58.646Z,14.40
2023-03-28T18:21:27.089Z,14.40
2023-03-28T18:23:55.371Z,14.30
2023-03-28T18:26:24.005Z,14.20
2023-03-28T18:28:52.154Z,14.20
2023-03-28T18:31:27.857Z,14.10
2023-03-28T18:33:58.053Z,14.10
2023-03-28T18:36:26.388Z,14.10
2023-03-28T18:38:55.980Z,14.00
2023-03-28T18:41:24.897Z,14.00
2023-03-28T18:43:53.174Z,13.90
2023-03-28T18:46:21.449Z,13.90
2023-03-28T18:48:50.672Z,13.80
2023-03-28T18:51:20.943Z,13.80
2023-03-28T18:53:49.068Z,13.80
2023-03-28T18:56:18.389Z,13.70
2023-03-28T18:58:48.936Z,13.70
2023-03-28T19:01:17.373Z,13.60
2023-03-28T19:03:47.077Z,13.60
2023-03-28T19:06:16.414Z,13.50
2023-03-28T19:08:47.389Z,13.50
2023-03-28T19:11:17.704Z,13.40
2023-03-28T19:13:45.754Z,13.30
2023-03-28T19:16:15.159Z,13.30
2023-03-28T19:18:44.634Z,13.20
2023-03-28T19:21:13.343Z,13.20
2023-03-28T19:23:41.847Z,13.10
2023-03-28T19:26:13.828Z,13.10
2023-03-28T19:28:42.510Z,13.00
2023-03-28T19:31:13.235Z,13.00
2023-03-28T19:33:42.119Z,12.90
2023-03-28T19:36:11.328Z,12.80
2023-03-28T19:38:40.100Z,12.80
2023-03-28T19:41:15.734Z,12.70
2023-03-28T19:43:45.889Z,12.70
2023-03-28T19:46:18.163Z,12.60
2023-03-28T19:48:46.354Z,12.60
2023-03-28T19:51:15.507Z,12.50
2023-03-28T19:53:43.622Z,12.50
2023-03-28T19:56:12.193Z,12.40
2023-03-28T19:58:40.465Z,12.30
2023-03-28T20:01:09.999Z,12.30
2023-03-28T20:03:38.093Z,12.20
2023-03-28T20:06:07.943Z,12.20
2023-03-28T20:08:36.425Z,12.10
2023-03-28T20:11:05.215Z,12.10
2023-03-28T20:13:33.245Z,12.10
2023-03-28T20:16:03.757Z,12.10
2023-03-28T20:18:33.641Z,12.00
2023-03-28T20:21:03.788Z,12.10
2023-03-28T20:23:34.113Z,12.10
2023-03-28T20:26:14.142Z,12.10
2023-03-28T20:28:42.348Z,12.00
2023-03-28T20:31:12.511Z,12.00
2023-03-28T20:33:42.407Z,12.00
2023-03-28T20:36:10.688Z,12.00
2023-03-28T20:38:38.731Z,11.90
2023-03-28T20:41:12.107Z,11.90
2023-03-28T20:43:47.005Z,11.80
2023-03-28T20:46:18.485Z,11.80
2023-03-28T20:48:52.875Z,11.70
2023-03-28T20:51:23.807Z,11.70
2023-03-28T20:53:54.492Z,11.60
2023-03-28T20:56:23.458Z,11.60
2023-03-28T20:58:53.092Z,11.60
2023-03-28T21:01:25.373Z,11.50
2023-03-28T21:03:58.768Z,11.50
2023-03-28T21:06:29.465Z,11.50
2023-03-28T21:09:00.464Z,11.40
2023-03-28T21:11:30.471Z,11.40
2023-03-28T21:14:00.100Z,11.30
2023-03-28T21:16:29.418Z,11.30
2023-03-28T21:18:59.255Z,11.30
2023-03-28T21:21:29.730Z,11.20
2023-03-28T21:23:58.342Z,11.20
2023-03-28T21:26:27.279Z,11.10
2023-03-28T21:28:55.337Z,11.10
2023-03-28T21:31:25.873Z,11.10
2023-03-28T21:33:55.475Z,11.00
2023-03-28T21:36:25.250Z,10.90
2023-03-28T21:38:53.519Z,10.90
2023-03-28T21:41:22.438Z,10.90
2023-03-28T21:43:50.542Z,10.80
2023-03-28T21:46:19.631Z,10.80
2023-03-28T21:48:48.331Z,10.70
2023-03-28T21:51:17.416Z,10.70
2023-03-28T21:53:46.975Z,10.70
2023-03-28T21:56:16.377Z,10.60
2023-03-28T21:58:44.622Z,10.60
2023-03-28T22:01:14.575Z,10.60
2023-03-28T22:03:42.823Z,10.60
2023-03-28T22:06:11.466Z,10.60
2023-03-28T22:08:39.515Z,10.60
2023-03-28T22:11:14.677Z,10.60
2023-03-28T22:13:44.816Z,10.60
2023-03-28T22:16:14.125Z,10.60
2023-03-28T22:18:50.348Z,10.60
2023-03-28T22:21:18.968Z,10.60
2023-03-28T22:23:47.864Z,10.60
2023-03-28T22:26:17.927Z,10.60
2023-03-28T22:28:46.059Z,10.60
2023-03-28T22:31:16.739Z,10.60
2023-03-28T22:33:45.028Z,10.60
2023-03-28T22:36:13.864Z,10.60
2023-03-28T22:38:41.946Z,10.50
2023-03-28T22:41:10.034Z,10.50
2023-03-28T22:43:42.738Z,10.50
2023-03-28T22:46:12.627Z,10.50
2023-03-28T22:48:42.070Z,10.40
2023-03-28T22:51:11.926Z,10.40
2023-03-28T22:53:40.421Z,10.30
2023-03-28T22:56:09.429Z,10.30
2023-03-28T22:58:38.868Z,10.30
2023-03-28T23:01:07.642Z,10.30
2023-03-28T23:03:35.748Z,10.30
2023-03-28T23:06:06.108Z,10.30
2023-03-28T23:08:34.978Z,10.30
2023-03-28T23:11:03.334Z,10.30
2023-03-28T23:13:32.164Z,10.30
2023-03-28T23:16:01.878Z,10.30
2023-03-28T23:18:30.798Z,10.20
2023-03-28T23:20:58.904Z,10.30
2023-03-28T23:23:27.223Z,10.30
2023-03-28T23:25:55.302Z,10.30
2023-03-28T23:28:23.375Z,10.30
2023-03-28T23:30:51.466Z,10.30
2023-03-28T23:33:20.911Z,10.30
2023-03-28T23:35:49.170Z,10.30
2023-03-28T23:38:17.431Z,10.20
2023-03-28T23:40:46.247Z,10.20
2023-03-28T23:43:14.378Z,10.20
2023-03-28T23:45:43.365Z,10.20
2023-03-28T23:48:11.445Z,10.10
2023-03-28T23:50:41.064Z,10.10
2023-03-28T23:53:09.410Z,10.10
2023-03-28T23:55:37.631Z,10.10
2023-03-28T23:58:05.732Z,10.10
